Time;durP1;ratioP1;P1;durP2;ratioP2;P2;SDS_P1;SDS_P2;PMS_P1;PMS_P2;Temp;Humidity;BMP_temperature;BMP_pressure;BME280_temperature;BME280_humidity;BME280_pressure;Samples;Min_cycle;Max_cycle;Signal;HPM_P1;HPM_P2
2022/09/02 03:59:46;;;;;;;1.45;1.00;;;;;;;18.72;42.03;100559.75;5606754;31;76263;-56
2022/09/02 04:02:54;;;;;;;2.55;1.08;;;;;;;18.72;42.03;100559.75;5598129;31;34159;-56
2022/09/02 04:05:57;;;;;;;2.97;1.10;;;;;;;18.35;44.68;100574.19;5603506;31;34165;-57
2022/09/02 04:09:01;;;;;;;3.67;1.23;;;;;;;18.30;43.24;100577.84;5603764;31;33035;-57
2022/09/02 04:12:05;;;;;;;2.20;1.10;;;;;;;18.35;43.67;100577.69;5603463;31;33546;-57
2022/09/02 04:15:10;;;;;;;2.97;1.00;;;;;;;18.41;42.33;100565.50;5602398;31;34068;-57
2022/09/02 04:18:16;;;;;;;3.30;1.37;;;;;;;18.35;42.43;100574.19;5602957;31;34091;-56
2022/09/02 04:21:18;;;;;;;2.40;1.15;;;;;;;18.37;42.36;100572.69;5603440;31;33830;-56
2022/09/02 04:24:21;;;;;;;1.05;0.90;;;;;;;18.50;42.73;100570.88;5603312;31;33262;-57
2022/09/02 04:27:24;;;;;;;1.05;0.90;;;;;;;18.51;41.93;100569.78;5603412;31;33354;-56
2022/09/02 04:30:27;;;;;;;1.30;1.00;;;;;;;18.49;42.60;100572.00;5602710;31;33209;-57
2022/09/02 04:33:29;;;;;;;2.67;1.05;;;;;;;18.41;42.32;100579.09;5595264;31;33302;-57
2022/09/02 04:36:34;;;;;;;1.15;0.82;;;;;;;18.45;42.56;100571.09;5603673;31;31844;-56
2022/09/02 04:39:38;;;;;;;1.85;1.17;;;;;;;18.54;42.16;100572.63;5603153;31;34440;-57
2022/09/02 04:42:41;;;;;;;3.05;1.05;;;;;;;18.48;42.58;100579.37;5603151;31;33368;-56
2022/09/02 04:45:45;;;;;;;3.67;1.33;;;;;;;18.47;42.51;100585.91;5601900;31;34309;-56
2022/09/02 04:48:47;;;;;;;3.17;1.30;;;;;;;18.47;42.27;100580.47;5583497;31;33693;-56
2022/09/02 04:51:50;;;;;;;2.47;0.95;;;;;;;18.57;42.68;100584.72;5582135;32;33225;-56
2022/09/02 04:54:52;;;;;;;1.52;0.90;;;;;;;18.67;42.44;100581.62;5580135;31;34478;-57
2022/09/02 04:57:54;;;;;;;2.05;1.10;;;;;;;18.70;42.67;100580.19;5584154;31;33672;-57
2022/09/02 05:00:58;;;;;;;2.87;0.98;;;;;;;18.71;42.76;100582.56;5582455;31;33401;-57
2022/09/02 05:04:03;;;;;;;2.70;1.12;;;;;;;18.78;42.37;100591.03;5581644;31;33350;-56
2022/09/02 05:07:07;;;;;;;3.65;1.00;;;;;;;18.78;42.57;100585.59;5581881;31;33889;-56
2022/09/02 05:10:12;;;;;;;2.92;1.23;;;;;;;18.68;43.65;100593.31;5573158;31;33294;-57
2022/09/02 05:13:15;;;;;;;1.75;1.00;;;;;;;18.81;43.44;100588.75;5586702;31;34234;-57
2022/09/02 05:16:26;;;;;;;2.28;1.20;;;;;;;18.76;42.29;100592.47;5570501;31;34442;-57
2022/09/02 05:19:30;;;;;;;3.97;1.02;;;;;;;18.67;43.59;100595.19;5569148;31;33504;-56
2022/09/02 05:22:35;;;;;;;3.15;1.33;;;;;;;18.70;42.75;100588.31;5571555;31;33316;-57
2022/09/02 05:25:40;;;;;;;5.05;1.10;;;;;;;18.54;42.93;100594.34;5569888;31;33624;-57
2022/09/02 05:28:45;;;;;;;2.12;1.17;;;;;;;18.52;42.90;100593.88;5569995;31;34333;-56
2022/09/02 05:31:48;;;;;;;1.73;0.93;;;;;;;18.65;43.66;100592.03;5569387;31;35141;-56
2022/09/02 05:34:51;;;;;;;8.65;1.12;;;;;;;18.74;43.52;100598.25;5571633;31;33692;-57
2022/09/02 05:37:54;;;;;;;6.60;1.27;;;;;;;18.88;42.72;100592.56;5569857;31;33389;-57
2022/09/02 05:41:07;;;;;;;8.13;1.27;;;;;;;18.82;42.37;100593.88;5569374;31;33330;-57
2022/09/02 05:44:12;;;;;;;2.35;1.30;;;;;;;18.79;42.84;100599.97;5570097;31;33506;-57
2022/09/02 05:47:14;;;;;;;1.70;1.10;;;;;;;18.93;43.12;100594.25;5571984;31;33351;-57
2022/09/02 05:50:17;;;;;;;2.08;1.20;;;;;;;18.92;43.00;100587.25;5576731;31;34127;-57
2022/09/02 05:53:21;;;;;;;3.17;1.15;;;;;;;19.01;42.71;100590.69;5566356;31;33454;-56
2022/09/02 05:56:26;;;;;;;3.78;1.10;;;;;;;18.92;43.82;100592.69;5569279;31;33615;-57
2022/09/02 05:59:30;;;;;;;7.22;1.35;;;;;;;19.02;42.49;100592.28;5569261;32;34345;-56
2022/09/02 06:02:32;;;;;;;3.35;2.33;;;;;;;19.06;42.42;100592.41;5572091;31;33746;-56
2022/09/02 06:05:37;;;;;;;4.90;1.40;;;;;;;19.05;43.74;100602.50;5569216;31;34192;-57
2022/09/02 06:08:39;;;;;;;4.50;1.10;;;;;;;19.03;43.65;100593.88;5569761;31;33183;-57
2022/09/02 06:11:45;;;;;;;4.05;1.20;;;;;;;18.94;42.47;100596.66;5570298;31;34111;-57
2022/09/02 06:14:49;;;;;;;3.75;1.17;;;;;;;18.97;43.09;100597.91;5568982;31;34353;-57
2022/09/02 06:17:51;;;;;;;5.10;1.00;;;;;;;19.04;43.27;100598.19;5574734;31;34316;-56
2022/09/02 06:20:54;;;;;;;4.80;1.00;;;;;;;19.13;44.13;100607.03;5567224;31;33666;-56
2022/09/02 06:23:57;;;;;;;1.50;1.00;;;;;;;19.08;42.74;100603.75;5564384;31;34148;-57
2022/09/02 06:27:00;;;;;;;2.80;1.10;;;;;;;19.03;43.44;100602.00;5568966;31;33369;-57
2022/09/02 06:30:03;;;;;;;2.62;1.17;;;;;;;19.06;43.68;100606.00;5575593;31;33184;-57
2022/09/02 06:33:06;;;;;;;5.57;1.10;;;;;;;19.29;43.47;100611.88;5577435;31;33863;-56
2022/09/02 06:36:11;;;;;;;5.12;1.70;;;;;;;19.17;42.26;100608.00;5567177;31;34318;-56
2022/09/02 06:39:18;;;;;;;3.60;1.23;;;;;;;19.18;43.04;100609.56;5568325;31;33757;-57
2022/09/02 06:42:20;;;;;;;3.40;1.20;;;;;;;19.06;42.77;100608.72;5568972;31;33563;-57
2022/09/02 06:45:32;;;;;;;3.15;1.10;;;;;;;19.14;43.16;100605.12;5573652;31;34145;-58
2022/09/02 06:48:35;;;;;;;5.70;1.00;;;;;;;19.17;43.81;100604.47;5560264;31;33586;-57
2022/09/02 06:51:43;;;;;;;3.72;1.10;;;;;;;19.29;43.26;100612.69;5569136;31;34254;-56
2022/09/02 06:54:47;;;;;;;5.62;1.60;;;;;;;19.36;42.64;100607.50;5571287;31;31738;-56
2022/09/02 06:57:50;;;;;;;5.28;1.40;;;;;;;19.36;44.68;100603.97;5561230;31;33673;-57
2022/09/02 07:00:54;;;;;;;3.10;1.50;;;;;;;19.20;44.26;100607.34;5558654;31;33681;-57
2022/09/02 07:07:18;;;;;;;3.10;1.15;;;;;;;19.21;43.17;100606.19;5568605;31;33672;-57
2022/09/02 07:10:22;;;;;;;4.20;1.37;;;;;;;19.18;43.73;100606.06;5567641;31;34260;-56
2022/09/02 07:13:25;;;;;;;6.43;2.45;;;;;;;19.25;44.03;100604.41;5571582;31;33361;-57
2022/09/02 07:16:35;;;;;;;3.40;1.40;;;;;;;19.40;44.79;100607.63;5568100;31;33291;-56
2022/09/02 07:19:38;;;;;;;3.37;1.30;;;;;;;19.51;43.34;100597.94;5568477;31;32352;-57
2022/09/02 07:22:41;;;;;;;3.25;1.40;;;;;;;19.65;42.60;100600.38;5570604;31;34458;-57
2022/09/02 07:25:44;;;;;;;3.95;1.33;;;;;;;19.58;43.16;100598.19;5567398;31;33364;-57
2022/09/02 07:28:46;;;;;;;7.68;1.50;;;;;;;19.63;44.36;100605.31;5567927;31;33424;-57
2022/09/02 07:31:49;;;;;;;4.20;1.23;;;;;;;19.55;44.51;100600.78;5567563;31;33382;-57
2022/09/02 07:34:52;;;;;;;3.70;1.37;;;;;;;19.58;44.65;100600.09;5572560;31;34466;-56
2022/09/02 07:37:54;;;;;;;3.45;1.35;;;;;;;19.71;43.22;100605.28;5569146;31;34036;-57
2022/09/02 07:40:56;;;;;;;6.00;1.40;;;;;;;19.71;44.09;100602.56;5568668;32;34496;-57
2022/09/02 07:44:00;;;;;;;5.55;1.62;;;;;;;19.75;44.83;100601.88;5569507;31;33240;-57
2022/09/02 07:47:04;;;;;;;6.43;1.52;;;;;;;19.79;43.93;100606.31;5564737;31;33423;-57
2022/09/02 07:50:07;;;;;;;5.62;1.10;;;;;;;19.78;44.77;100602.00;5566030;32;34082;-56
2022/09/02 07:53:23;;;;;;;4.18;1.55;;;;;;;19.88;45.24;100601.56;5568880;31;33208;-56
2022/09/02 07:56:26;;;;;;;3.47;1.40;;;;;;;19.95;43.99;100599.06;5566657;31;33776;-57
2022/09/02 07:59:29;;;;;;;3.90;1.50;;;;;;;19.90;43.17;100607.47;5567285;31;33446;-57
2022/09/02 08:02:33;;;;;;;4.40;1.73;;;;;;;19.92;44.28;100604.41;5576286;31;34585;-56
2022/09/02 08:05:36;;;;;;;4.50;1.27;;;;;;;19.96;43.38;100602.59;5568069;31;34521;-56
2022/09/02 08:08:40;;;;;;;3.00;1.25;;;;;;;19.93;43.56;100600.53;5565080;31;33766;-56
2022/09/02 08:11:46;;;;;;;4.85;1.50;;;;;;;19.95;44.25;100606.44;5570947;31;32245;-56
2022/09/02 08:14:48;;;;;;;3.78;1.27;;;;;;;19.96;44.56;100599.87;5563408;31;33658;-56
2022/09/02 08:17:51;;;;;;;4.90;1.35;;;;;;;20.05;43.58;100605.22;5565619;31;33703;-57
2022/09/02 08:20:54;;;;;;;6.80;1.30;;;;;;;19.91;43.87;100606.34;5560570;31;33804;-57
2022/09/02 08:23:57;;;;;;;4.78;1.67;;;;;;;19.97;44.03;100601.47;5568330;31;33105;-56
2022/09/02 08:26:59;;;;;;;6.43;1.30;;;;;;;19.97;43.75;100601.47;5566070;31;33713;-56
2022/09/02 08:30:08;;;;;;;6.43;1.73;;;;;;;20.03;44.32;100600.09;5567321;31;33611;-56
2022/09/02 08:33:11;;;;;;;8.73;1.80;;;;;;;19.92;44.56;100601.69;5567691;31;33193;-57
2022/09/02 08:36:14;;;;;;;2.95;1.30;;;;;;;19.95;45.00;100598.28;5562531;31;33605;-57
2022/09/02 08:39:16;;;;;;;6.03;1.65;;;;;;;19.97;44.41;100601.47;5567197;31;33744;-56
2022/09/02 08:43:03;;;;;;;4.30;1.37;;;;;;;20.04;45.22;100590.03;5573602;31;33947;-56
2022/09/02 08:46:10;;;;;;;9.50;1.90;;;;;;;20.07;43.82;100600.25;5482403;32;34300;-56
2022/09/02 08:49:24;;;;;;;4.50;1.50;;;;;;;20.08;43.28;100586.28;5500078;32;33440;-57
2022/09/02 08:52:35;;;;;;;6.82;1.55;;;;;;;20.07;44.33;100592.87;5572647;31;33668;-57
2022/09/02 08:56:00;;;;;;;3.70;1.73;;;;;;;20.21;44.09;100592.53;5559417;31;33697;-56
2022/09/02 08:59:03;;;;;;;5.57;1.75;;;;;;;20.30;44.56;100587.00;5569819;31;33873;-57
2022/09/02 09:02:20;;;;;;;2.92;1.35;;;;;;;20.22;43.73;100593.31;5568034;31;33700;-57
2022/09/02 09:06:04;;;;;;;7.05;1.87;;;;;;;20.12;43.67;100584.47;5575500;31;33657;-56
2022/09/02 09:09:07;;;;;;;2.78;1.30;;;;;;;20.13;43.90;100591.53;5496526;32;33353;-57
2022/09/02 09:12:21;;;;;;;7.03;1.55;;;;;;;20.22;44.75;100587.88;5488735;32;34211;-56
2022/09/02 09:16:01;;;;;;;3.28;1.70;;;;;;;20.37;43.02;100592.66;5571376;31;33760;-56
2022/09/02 09:19:36;;;;;;;4.25;1.67;;;;;;;20.38;44.59;100586.84;5566528;31;33729;-57
2022/09/02 09:22:40;;;;;;;4.75;1.80;;;;;;;20.40;43.63;100581.88;5566518;31;33780;-57
2022/09/02 09:25:44;;;;;;;5.40;1.60;;;;;;;20.47;44.05;100581.31;5570404;31;34337;-57
2022/09/02 09:28:49;;;;;;;5.55;1.85;;;;;;;20.41;44.00;100580.72;5576083;31;33733;-56
2022/09/02 09:31:59;;;;;;;3.03;1.77;;;;;;;20.47;43.11;100575.84;5558542;31;33596;-56
2022/09/02 09:35:07;;;;;;;2.87;1.65;;;;;;;20.53;43.43;100579.16;5563809;31;33298;-56
2022/09/02 09:38:12;;;;;;;4.70;2.10;;;;;;;20.54;43.70;100572.59;5580656;31;33710;-56
2022/09/02 09:41:19;;;;;;;5.68;1.80;;;;;;;20.58;43.78;100573.47;5579236;31;33709;-56
2022/09/02 09:44:36;;;;;;;7.20;1.80;;;;;;;20.63;44.07;100576.78;5577428;31;33662;-57
2022/09/02 09:47:39;;;;;;;4.22;1.70;;;;;;;20.79;43.65;100567.88;5567962;31;33696;-57
2022/09/02 09:50:42;;;;;;;5.07;1.90;;;;;;;20.90;42.96;100571.72;5567645;31;34239;-56
2022/09/02 09:53:45;;;;;;;11.20;2.05;;;;;;;20.90;43.11;100566.28;5571038;31;34299;-57
2022/09/02 09:56:47;;;;;;;2.90;1.70;;;;;;;20.88;42.65;100563.09;5568175;31;33695;-57
2022/09/02 09:59:55;;;;;;;2.92;2.03;;;;;;;20.91;44.08;100564.34;5569333;31;34308;-57
2022/09/02 10:03:00;;;;;;;7.00;1.50;;;;;;;20.99;42.79;100561.47;5573802;31;34064;-57
2022/09/02 10:06:32;;;;;;;4.25;1.70;;;;;;;21.05;44.02;100553.81;5568198;31;34196;-57
2022/09/02 10:09:35;;;;;;;4.37;1.60;;;;;;;21.09;42.39;100550.09;5567206;31;34437;-56
2022/09/02 10:12:37;;;;;;;4.03;1.75;;;;;;;21.17;42.96;100553.00;5569372;31;33325;-57
2022/09/02 10:16:00;;;;;;;5.30;2.37;;;;;;;21.15;42.53;100560.72;5567937;31;33914;-57
2022/09/02 10:19:22;;;;;;;3.95;1.80;;;;;;;21.19;43.65;100565.16;5568641;31;33692;-57
2022/09/02 10:22:54;;;;;;;4.43;1.80;;;;;;;21.24;43.22;100564.88;5572881;31;33634;-57
2022/09/02 10:26:21;;;;;;;2.97;1.92;;;;;;;21.27;42.40;100556.00;5577393;31;34453;-57
2022/09/02 10:29:40;;;;;;;4.00;1.85;;;;;;;21.28;42.55;100548.63;5571459;31;34313;-57
2022/09/02 10:33:09;;;;;;;3.58;1.80;;;;;;;21.40;42.93;100545.09;5567170;31;34341;-57
2022/09/02 10:37:01;;;;;;;2.25;1.55;;;;;;;21.53;43.50;100546.59;5562264;31;33796;-57
2022/09/02 10:40:08;;;;;;;4.05;1.73;;;;;;;21.42;42.39;100556.41;5511147;31;33708;-57
2022/09/02 10:43:27;;;;;;;4.57;1.73;;;;;;;21.47;43.39;100553.44;5556671;31;33981;-57
2022/09/02 10:46:38;;;;;;;6.45;1.77;;;;;;;21.52;42.74;100562.19;5561256;31;34314;-57
2022/09/02 10:50:09;;;;;;;6.10;1.80;;;;;;;21.45;42.29;100553.00;5564513;31;33401;-57
2022/09/02 10:53:29;;;;;;;5.10;1.95;;;;;;;21.56;42.39;100552.16;5563150;31;34420;-57
2022/09/02 10:56:43;;;;;;;3.70;1.75;;;;;;;21.45;42.63;100542.88;5566838;31;34002;-57
2022/09/02 10:59:56;;;;;;;3.20;1.90;;;;;;;21.55;42.36;100531.44;5565132;31;33595;-56
2022/09/02 11:03:12;;;;;;;5.93;1.70;;;;;;;21.55;42.42;100545.09;5564139;31;33661;-57
2022/09/02 11:06:24;;;;;;;3.25;1.65;;;;;;;21.61;43.23;100544.84;5548583;32;33710;-57
2022/09/02 11:09:59;;;;;;;5.57;2.05;;;;;;;21.72;43.15;100549.44;5571999;31;34263;-57
2022/09/02 11:13:20;;;;;;;5.18;1.87;;;;;;;21.71;42.74;100553.28;5569843;31;33853;-56
2022/09/02 11:16:34;;;;;;;11.50;1.98;;;;;;;21.74;42.72;100538.94;5553610;32;33818;-57
2022/09/02 11:19:48;;;;;;;5.20;2.15;;;;;;;21.74;42.96;100538.16;5559676;32;33825;-56
2022/09/02 11:23:07;;;;;;;4.37;1.98;;;;;;;21.76;43.10;100538.63;5567952;32;34431;-56
2022/09/02 11:26:37;;;;;;;7.25;1.98;;;;;;;21.78;43.86;100541.75;5567451;32;33148;-56
2022/09/02 11:29:59;;;;;;;5.28;1.73;;;;;;;21.83;43.47;100535.28;5567812;32;34277;-56
2022/09/02 11:33:25;;;;;;;4.40;2.00;;;;;;;22.01;43.78;100523.62;5567759;32;33403;-56
2022/09/02 11:36:28;;;;;;;4.87;1.87;;;;;;;22.17;42.67;100528.31;5567098;32;33780;-56
2022/09/02 11:39:42;;;;;;;3.60;2.00;;;;;;;22.05;41.08;100527.25;5567229;32;34137;-56
2022/09/02 11:43:20;;;;;;;2.70;2.00;;;;;;;22.01;43.45;100520.88;5567449;32;34109;-56
2022/09/02 11:46:51;;;;;;;4.18;1.80;;;;;;;22.26;42.00;100520.72;5569809;31;33704;-57
2022/09/02 11:50:17;;;;;;;4.00;2.10;;;;;;;22.21;41.60;100519.03;5578028;31;33667;-57
2022/09/02 11:53:42;;;;;;;4.32;2.05;;;;;;;22.27;41.67;100509.44;5571809;31;34465;-57
2022/09/02 11:56:49;;;;;;;5.70;2.15;;;;;;;22.09;42.47;100505.50;5569322;31;34015;-56
2022/09/02 11:59:51;;;;;;;5.90;1.90;;;;;;;22.01;45.06;100503.72;5582529;31;34608;-57
2022/09/02 12:03:22;;;;;;;7.80;2.10;;;;;;;22.14;42.70;100501.69;5584230;31;33649;-57
2022/09/02 12:07:06;;;;;;;5.82;2.33;;;;;;;22.14;41.84;100501.69;5562751;31;33628;-57
2022/09/02 12:10:44;;;;;;;3.72;1.95;;;;;;;22.24;43.95;100501.16;5569676;31;34256;-57
2022/09/02 12:13:48;;;;;;;3.28;2.10;;;;;;;22.37;42.75;100505.34;5567476;32;34326;-57
2022/09/02 12:17:05;;;;;;;6.20;2.40;;;;;;;22.29;40.84;100500.91;5567337;32;33691;-57
2022/09/02 12:20:11;;;;;;;5.97;2.05;;;;;;;22.39;42.21;100492.13;5568474;32;33704;-57
2022/09/02 12:23:55;;;;;;;4.72;2.03;;;;;;;22.37;42.03;100504.56;5568483;32;34261;-57
2022/09/02 12:26:57;;;;;;;4.72;2.12;;;;;;;22.33;42.87;100501.75;5542823;32;34382;-57
2022/09/02 12:30:00;;;;;;;8.32;2.00;;;;;;;22.43;39.81;100501.19;5549868;32;33812;-58
2022/09/02 12:33:11;;;;;;;4.85;2.40;;;;;;;22.36;40.25;100498.31;5549103;32;33978;-57
2022/09/02 12:36:41;;;;;;;3.97;2.15;;;;;;;22.42;39.77;100496.09;5551010;32;33674;-57
2022/09/02 12:39:50;;;;;;;3.50;2.05;;;;;;;22.45;39.88;100498.91;5546310;32;33663;-57
2022/09/02 12:42:55;;;;;;;3.47;2.10;;;;;;;22.49;38.97;100480.66;5551355;32;33651;-57
2022/09/02 12:46:18;;;;;;;7.15;2.10;;;;;;;22.44;40.45;100480.91;5567612;32;34404;-57
2022/09/02 12:49:27;;;;;;;47.17;4.82;;;;;;;22.37;39.61;100486.22;5570555;32;33666;-57
2022/09/02 12:53:17;;;;;;;3.47;2.30;;;;;;;22.47;40.35;100485.66;5570397;32;33630;-57
2022/09/02 12:56:22;;;;;;;4.65;2.00;;;;;;;22.47;39.60;100469.28;5565166;32;33395;-57
2022/09/02 12:59:31;;;;;;;7.12;2.15;;;;;;;22.57;38.73;100472.59;5570179;31;33416;-57
2022/09/02 13:03:06;;;;;;;9.00;2.55;;;;;;;22.58;40.73;100477.69;5570389;32;33779;-57
2022/09/02 13:06:46;;;;;;;6.55;2.30;;;;;;;22.59;39.28;100476.56;5551931;31;33567;-57
2022/09/02 13:10:03;;;;;;;4.68;1.98;;;;;;;22.59;40.56;100470.31;5569611;32;33649;-57
2022/09/02 13:13:30;;;;;;;6.03;2.08;;;;;;;22.72;41.11;100463.56;5568657;32;33817;-57
2022/09/02 13:17:10;;;;;;;13.15;2.58;;;;;;;22.74;39.60;100462.00;5568760;32;34463;-57
2022/09/02 13:21:00;;;;;;;9.32;2.45;;;;;;;22.83;38.56;100467.28;5568153;32;33770;-57
2022/09/02 13:24:08;;;;;;;4.28;2.08;;;;;;;22.91;39.37;100470.94;5567422;32;33674;-57
2022/09/02 13:27:17;;;;;;;4.18;2.20;;;;;;;22.80;38.39;100462.53;5569158;32;33622;-57
2022/09/02 13:30:39;;;;;;;10.15;2.60;;;;;;;22.74;40.94;100459.28;5569070;32;33637;-57
2022/09/02 13:33:42;;;;;;;8.38;2.65;;;;;;;22.80;40.57;100464.47;5570065;32;34318;-57
2022/09/02 13:36:45;;;;;;;7.78;2.47;;;;;;;22.78;41.06;100461.28;5570058;32;33359;-57
2022/09/02 13:39:48;;;;;;;8.88;2.37;;;;;;;22.77;41.66;100457.78;5569519;32;33615;-57
2022/09/02 13:42:53;;;;;;;3.33;2.00;;;;;;;22.85;40.64;100456.78;5569895;32;34273;-57
2022/09/02 13:46:00;;;;;;;7.05;2.25;;;;;;;22.77;39.61;100459.72;5568387;32;33799;-57
2022/09/02 13:49:02;;;;;;;5.10;2.15;;;;;;;22.77;39.91;100460.50;5569462;32;33733;-58
2022/09/02 13:52:11;;;;;;;3.87;2.20;;;;;;;22.66;40.76;100456.78;5569680;32;33773;-57
2022/09/02 13:55:19;;;;;;;4.25;2.33;;;;;;;22.68;40.65;100455.28;5569375;32;34306;-57
2022/09/02 13:58:27;;;;;;;37.22;3.70;;;;;;;22.68;45.46;100446.28;5569377;32;33732;-57
2022/09/02 14:01:33;;;;;;;4.05;2.40;;;;;;;22.88;40.61;100447.03;5569357;32;33790;-57
2022/09/02 14:04:36;;;;;;;6.90;2.20;;;;;;;22.86;40.85;100435.69;5569785;32;34510;-57
2022/09/02 14:07:58;;;;;;;3.78;2.17;;;;;;;23.00;41.85;100435.19;5569553;32;34245;-57
2022/09/02 14:11:02;;;;;;;4.28;2.30;;;;;;;22.98;39.51;100439.09;5569844;32;34318;-57
2022/09/02 14:14:15;;;;;;;5.87;2.40;;;;;;;22.91;39.61;100438.94;5569014;32;33748;-58
2022/09/02 14:17:25;;;;;;;4.80;2.53;;;;;;;22.95;40.79;100439.81;5569583;32;34393;-57
2022/09/02 14:20:27;;;;;;;4.37;2.30;;;;;;;22.81;40.69;100442.22;5569296;32;34401;-58
2022/09/02 14:23:34;;;;;;;4.10;2.30;;;;;;;22.81;39.40;100444.97;5569592;32;33767;-57
2022/09/02 14:26:40;;;;;;;5.95;2.37;;;;;;;22.74;41.24;100440.16;5569616;32;34236;-57
2022/09/02 14:29:45;;;;;;;6.53;2.70;;;;;;;22.75;40.76;100443.69;5569738;32;33690;-57
2022/09/02 14:32:47;;;;;;;4.97;2.23;;;;;;;22.71;40.49;100445.56;5569209;32;33681;-57
2022/09/02 14:36:30;;;;;;;5.20;2.50;;;;;;;22.67;40.22;100444.69;5569686;32;34385;-57
2022/09/02 14:39:32;;;;;;;5.80;2.90;;;;;;;22.65;40.02;100450.53;5569477;32;34379;-57
2022/09/02 14:42:50;;;;;;;3.20;2.00;;;;;;;22.83;41.97;100450.87;5567416;32;33753;-56
2022/09/02 14:46:05;;;;;;;5.15;2.45;;;;;;;22.80;41.00;100450.81;5567491;32;33748;-57
2022/09/02 14:49:21;;;;;;;4.12;2.37;;;;;;;22.86;41.18;100454.84;5566269;32;33833;-57
2022/09/02 14:52:27;;;;;;;;;;;;;;;22.73;41.01;100456.91;5567917;32;33823;-57
2022/09/02 14:55:49;;;;;;;7.12;2.40;;;;;;;22.73;40.86;100451.47;5569404;32;34728;-57
